EWG2YP EBBR-EDDH
Flight info
| Callsign | EWG2YP |
|---|---|
| Flight time | N/A |
| Altitude | 36000 |
| Route | NIK L191 VICOT N873 SPY/N0449F370 N873 ANDIK M105 RIBSO RIBSO7A |
| Aircraft | A20N/M-SDE2E3FGHIRWXY/LB1 |
Departure
| Time | N/A |
|---|---|
| Airport | Brussels Airport (EBBR) |
Arrival
| Time | 2026-04-30 20:00 |
|---|---|
| Airport | Hamburg Helmut Schmidt Airport (EDDH) |
| Time | Latitude | Longitude | Altitude | Speed | Heading |
|---|---|---|---|---|---|
| 2026-04-30 18:58 | 52.90379 | 6.84009 | 35377 ft | 431 kts | 41° |
| 2026-04-30 18:58 | 52.92635 | 6.87289 | 35378 ft | 431 kts | 41° |
| 2026-04-30 18:59 | 52.99373 | 6.97118 | 35385 ft | 430 kts | 41° |
| 2026-04-30 19:00 | 53.08223 | 7.10346 | 35390 ft | 430 kts | 46° |
| 2026-04-30 19:01 | 53.14858 | 7.26410 | 35394 ft | 421 kts | 64° |
| 2026-04-30 19:02 | 53.17862 | 7.40075 | 35393 ft | 422 kts | 70° |
| 2026-04-30 19:03 | 53.21431 | 7.58620 | 35397 ft | 422 kts | 70° |
| 2026-04-30 19:03 | 53.23574 | 7.67701 | 35388 ft | 419 kts | 56° |
| 2026-04-30 19:04 | 53.27732 | 7.74286 | 35397 ft | 417 kts | 28° |
| 2026-04-30 19:04 | 53.33283 | 7.76734 | 35403 ft | 419 kts | 0° |
| 2026-04-30 19:05 | 53.39022 | 7.75566 | 35182 ft | 418 kts | 2° |
| 2026-04-30 19:05 | 53.44705 | 7.77902 | 32942 ft | 437 kts | 24° |
| 2026-04-30 19:06 | 53.49839 | 7.83079 | 31555 ft | 430 kts | 38° |
| 2026-04-30 19:06 | 53.52047 | 7.86425 | 30996 ft | 428 kts | 46° |
| 2026-04-30 19:06 | 53.55536 | 7.94444 | 29875 ft | 432 kts | 61° |
| 2026-04-30 19:07 | 53.57714 | 8.03863 | 28745 ft | 433 kts | 71° |
| 2026-04-30 19:07 | 53.58592 | 8.08597 | 28081 ft | 430 kts | 71° |
| 2026-04-30 19:08 | 53.60340 | 8.18118 | 26810 ft | 420 kts | 71° |
| 2026-04-30 19:08 | 53.62035 | 8.27321 | 25703 ft | 410 kts | 71° |
| 2026-04-30 19:08 | 53.62877 | 8.31882 | 25146 ft | 407 kts | 71° |
| 2026-04-30 19:09 | 53.64523 | 8.40818 | 24037 ft | 399 kts | 71° |
| 2026-04-30 19:09 | 53.65338 | 8.45255 | 23481 ft | 395 kts | 71° |
| 2026-04-30 19:09 | 53.66143 | 8.49653 | 22927 ft | 391 kts | 71° |
| 2026-04-30 19:10 | 53.67714 | 8.58249 | 21998 ft | 383 kts | 71° |
| 2026-04-30 19:10 | 53.69259 | 8.66746 | 21209 ft | 378 kts | 72° |
| 2026-04-30 19:11 | 53.70026 | 8.70982 | 20823 ft | 375 kts | 72° |
| 2026-04-30 19:11 | 53.71526 | 8.79282 | 19994 ft | 370 kts | 72° |
| 2026-04-30 19:11 | 53.72268 | 8.83405 | 19480 ft | 365 kts | 72° |
| 2026-04-30 19:12 | 53.73000 | 8.87481 | 18984 ft | 361 kts | 72° |
| 2026-04-30 19:12 | 53.73713 | 8.91456 | 18497 ft | 358 kts | 72° |
| 2026-04-30 19:12 | 53.74427 | 8.95451 | 18018 ft | 354 kts | 72° |
| 2026-04-30 19:13 | 53.75828 | 9.03307 | 17564 ft | 351 kts | 72° |
| 2026-04-30 19:13 | 53.77182 | 9.10945 | 17437 ft | 322 kts | 72° |
| 2026-04-30 19:13 | 53.77808 | 9.14484 | 17420 ft | 306 kts | 72° |
| 2026-04-30 19:14 | 53.78391 | 9.17791 | 17415 ft | 289 kts | 72° |
| 2026-04-30 19:14 | 53.78950 | 9.20966 | 17407 ft | 274 kts | 72° |
| 2026-04-30 19:14 | 53.79476 | 9.23966 | 17404 ft | 258 kts | 72° |
| 2026-04-30 19:14 | 53.79965 | 9.26754 | 17399 ft | 243 kts | 72° |
| 2026-04-30 19:15 | 53.80442 | 9.29471 | 17409 ft | 240 kts | 72° |
| 2026-04-30 19:15 | 53.81355 | 9.34907 | 17409 ft | 240 kts | 81° |
| 2026-04-30 19:15 | 53.81235 | 9.37696 | 17409 ft | 246 kts | 105° |
| 2026-04-30 19:16 | 53.80347 | 9.40214 | 17408 ft | 256 kts | 130° |
| 2026-04-30 19:16 | 53.78814 | 9.41848 | 17408 ft | 269 kts | 155° |
| 2026-04-30 19:16 | 53.75106 | 9.42604 | 17396 ft | 284 kts | 194° |
| 2026-04-30 19:17 | 53.73321 | 9.41079 | 17420 ft | 290 kts | 207° |
| 2026-04-30 19:17 | 53.69950 | 9.37417 | 17405 ft | 292 kts | 223° |
| 2026-04-30 19:17 | 53.68891 | 9.34521 | 17403 ft | 294 kts | 258° |
| 2026-04-30 19:18 | 53.69129 | 9.30140 | 17414 ft | 282 kts | 304° |
| 2026-04-30 19:18 | 53.71499 | 9.26868 | 17423 ft | 261 kts | 350° |
| 2026-04-30 19:18 | 53.73261 | 9.26608 | 17423 ft | 251 kts | 14° |
| 2026-04-30 19:19 | 53.74874 | 9.27570 | 17422 ft | 244 kts | 33° |
| 2026-04-30 19:19 | 53.76301 | 9.29047 | 17421 ft | 244 kts | 34° |
| 2026-04-30 19:19 | 53.79211 | 9.32008 | 17416 ft | 244 kts | 33° |
| 2026-04-30 19:20 | 53.80656 | 9.33441 | 17416 ft | 244 kts | 33° |
| 2026-04-30 19:20 | 53.82085 | 9.34980 | 17407 ft | 242 kts | 45° |
| 2026-04-30 19:20 | 53.83149 | 9.40104 | 17412 ft | 244 kts | 95° |
| 2026-04-30 19:21 | 53.82578 | 9.42830 | 17410 ft | 252 kts | 118° |
| 2026-04-30 19:21 | 53.79525 | 9.45857 | 17404 ft | 277 kts | 173° |
| 2026-04-30 19:22 | 53.75888 | 9.43514 | 17421 ft | 290 kts | 207° |
| 2026-04-30 19:22 | 53.70724 | 9.38276 | 17418 ft | 290 kts | 212° |
| 2026-04-30 19:23 | 53.69658 | 9.29394 | 17421 ft | 278 kts | 313° |
| 2026-04-30 19:24 | 53.72836 | 9.26659 | 17424 ft | 254 kts | 7° |
| 2026-04-30 19:24 | 53.74486 | 9.27275 | 17374 ft | 242 kts | 30° |
| 2026-04-30 19:24 | 53.77354 | 9.30140 | 16660 ft | 241 kts | 34° |
| 2026-04-30 19:25 | 53.81642 | 9.34431 | 15641 ft | 238 kts | 38° |
| 2026-04-30 19:26 | 53.83147 | 9.38992 | 15419 ft | 233 kts | 86° |
| 2026-04-30 19:26 | 53.81958 | 9.44065 | 15412 ft | 247 kts | 133° |
| 2026-04-30 19:26 | 53.80472 | 9.45540 | 15408 ft | 259 kts | 158° |
| 2026-04-30 19:27 | 53.76879 | 9.44465 | 15404 ft | 279 kts | 205° |
| 2026-04-30 19:27 | 53.73561 | 9.41126 | 15423 ft | 279 kts | 206° |
| 2026-04-30 19:28 | 53.71888 | 9.39456 | 15419 ft | 279 kts | 206° |
| 2026-04-30 19:28 | 53.69221 | 9.34922 | 15406 ft | 285 kts | 256° |
| 2026-04-30 19:29 | 53.70003 | 9.28853 | 14867 ft | 267 kts | 319° |
| 2026-04-30 19:29 | 53.71487 | 9.27126 | 14470 ft | 256 kts | 347° |
| 2026-04-30 19:30 | 53.76138 | 9.28916 | 13471 ft | 231 kts | 35° |
| 2026-04-30 19:30 | 53.78889 | 9.31699 | 13417 ft | 233 kts | 34° |
| 2026-04-30 19:31 | 53.81686 | 9.34488 | 13414 ft | 232 kts | 39° |
| 2026-04-30 19:31 | 53.82734 | 9.36429 | 13410 ft | 226 kts | 65° |
| 2026-04-30 19:31 | 53.82918 | 9.41616 | 13413 ft | 230 kts | 108° |
| 2026-04-30 19:32 | 53.82064 | 9.43887 | 13411 ft | 237 kts | 130° |
| 2026-04-30 19:32 | 53.80659 | 9.45423 | 13409 ft | 247 kts | 155° |
| 2026-04-30 19:32 | 53.78920 | 9.45779 | 13407 ft | 260 kts | 183° |
| 2026-04-30 19:32 | 53.77191 | 9.44736 | 13403 ft | 269 kts | 204° |
| 2026-04-30 19:33 | 53.75589 | 9.43169 | 13423 ft | 270 kts | 206° |
| 2026-04-30 19:33 | 53.73979 | 9.41540 | 13427 ft | 269 kts | 206° |
| 2026-04-30 19:33 | 53.72368 | 9.39927 | 13417 ft | 269 kts | 206° |
| 2026-04-30 19:33 | 53.70782 | 9.38334 | 13420 ft | 270 kts | 210° |
| 2026-04-30 19:34 | 53.69499 | 9.36007 | 13396 ft | 277 kts | 243° |
| 2026-04-30 19:34 | 53.69080 | 9.32864 | 13415 ft | 277 kts | 276° |
| 2026-04-30 19:34 | 53.70878 | 9.27653 | 13421 ft | 259 kts | 336° |
| 2026-04-30 19:35 | 53.72532 | 9.26717 | 13423 ft | 247 kts | 2° |
| 2026-04-30 19:35 | 53.74189 | 9.27078 | 13420 ft | 237 kts | 26° |
| 2026-04-30 19:35 | 53.75605 | 9.28355 | 13424 ft | 233 kts | 35° |
| 2026-04-30 19:35 | 53.76993 | 9.29779 | 13419 ft | 233 kts | 35° |
| 2026-04-30 19:36 | 53.78386 | 9.31190 | 13416 ft | 233 kts | 35° |
| 2026-04-30 19:36 | 53.79768 | 9.32571 | 13417 ft | 233 kts | 34° |
| 2026-04-30 19:36 | 53.82428 | 9.35628 | 13405 ft | 227 kts | 56° |
| 2026-04-30 19:37 | 53.83077 | 9.38036 | 13411 ft | 226 kts | 79° |
| 2026-04-30 19:37 | 53.83080 | 9.40651 | 13414 ft | 228 kts | 100° |
| 2026-04-30 19:37 | 53.82442 | 9.43123 | 13413 ft | 234 kts | 122° |
| 2026-04-30 19:37 | 53.81219 | 9.44984 | 13391 ft | 241 kts | 146° |
| 2026-04-30 19:38 | 53.79627 | 9.45819 | 13100 ft | 250 kts | 171° |
| 2026-04-30 19:38 | 53.77880 | 9.45324 | 12700 ft | 263 kts | 199° |
| 2026-04-30 19:38 | 53.76267 | 9.43844 | 12440 ft | 263 kts | 206° |
| 2026-04-30 19:38 | 53.74693 | 9.42254 | 12434 ft | 264 kts | 206° |
| 2026-04-30 19:39 | 53.73135 | 9.40686 | 12426 ft | 264 kts | 206° |
| 2026-04-30 19:39 | 53.71549 | 9.39114 | 12427 ft | 264 kts | 206° |
| 2026-04-30 19:39 | 53.70047 | 9.37309 | 12403 ft | 269 kts | 226° |
| 2026-04-30 19:39 | 53.69187 | 9.34567 | 12414 ft | 272 kts | 259° |
| 2026-04-30 19:40 | 53.69220 | 9.31418 | 12422 ft | 269 kts | 290° |
| 2026-04-30 19:40 | 53.70113 | 9.28731 | 12424 ft | 260 kts | 320° |
| 2026-04-30 19:40 | 53.71579 | 9.27095 | 12421 ft | 249 kts | 347° |
| 2026-04-30 19:40 | 53.73226 | 9.26729 | 12423 ft | 239 kts | 12° |
| 2026-04-30 19:41 | 53.74771 | 9.27535 | 12392 ft | 228 kts | 33° |
| 2026-04-30 19:41 | 53.76127 | 9.28882 | 12107 ft | 226 kts | 35° |
| 2026-04-30 19:41 | 53.77459 | 9.30250 | 11750 ft | 228 kts | 34° |
| 2026-04-30 19:41 | 53.78813 | 9.31617 | 11517 ft | 225 kts | 34° |
| 2026-04-30 19:42 | 53.80169 | 9.32968 | 11461 ft | 227 kts | 33° |
| 2026-04-30 19:42 | 53.81533 | 9.34323 | 11435 ft | 227 kts | 36° |
| 2026-04-30 19:42 | 53.82622 | 9.36129 | 11419 ft | 222 kts | 61° |
| 2026-04-30 19:42 | 53.83127 | 9.38586 | 11416 ft | 222 kts | 83° |
| 2026-04-30 19:43 | 53.83003 | 9.41193 | 11416 ft | 225 kts | 104° |
| 2026-04-30 19:43 | 53.82273 | 9.43510 | 11414 ft | 231 kts | 126° |
| 2026-04-30 19:43 | 53.80992 | 9.45198 | 11413 ft | 239 kts | 150° |
| 2026-04-30 19:44 | 53.77636 | 9.45132 | 11407 ft | 259 kts | 202° |
| 2026-04-30 19:44 | 53.76074 | 9.43662 | 11413 ft | 261 kts | 206° |
| 2026-04-30 19:44 | 53.74484 | 9.42215 | 11417 ft | 256 kts | 193° |
| 2026-04-30 19:44 | 53.72763 | 9.41954 | 11407 ft | 247 kts | 162° |
| 2026-04-30 19:45 | 53.71208 | 9.43070 | 10991 ft | 249 kts | 139° |
| 2026-04-30 19:45 | 53.69864 | 9.44928 | 10481 ft | 253 kts | 133° |
| 2026-04-30 19:45 | 53.68563 | 9.46963 | 9973 ft | 256 kts | 132° |
| 2026-04-30 19:45 | 53.67281 | 9.49015 | 9444 ft | 252 kts | 132° |
| 2026-04-30 19:46 | 53.66043 | 9.51004 | 8913 ft | 247 kts | 132° |
| 2026-04-30 19:46 | 53.64813 | 9.52988 | 8324 ft | 245 kts | 132° |
| 2026-04-30 19:46 | 53.63591 | 9.54962 | 7673 ft | 243 kts | 132° |
| 2026-04-30 19:46 | 53.62398 | 9.56901 | 7027 ft | 242 kts | 132° |
| 2026-04-30 19:47 | 53.61200 | 9.58862 | 6399 ft | 240 kts | 133° |
| 2026-04-30 19:47 | 53.60348 | 9.60041 | 5975 ft | 242 kts | 146° |
| 2026-04-30 19:47 | 53.58160 | 9.60671 | 5345 ft | 246 kts | 189° |
| 2026-04-30 19:47 | 53.56652 | 9.59406 | 4996 ft | 250 kts | 218° |
| 2026-04-30 19:48 | 53.55432 | 9.57306 | 4656 ft | 251 kts | 226° |
| 2026-04-30 19:48 | 53.54290 | 9.55067 | 4326 ft | 252 kts | 227° |
| 2026-04-30 19:48 | 53.53180 | 9.52845 | 4025 ft | 250 kts | 227° |
| 2026-04-30 19:48 | 53.52089 | 9.50651 | 3994 ft | 241 kts | 227° |
| 2026-04-30 19:49 | 53.51016 | 9.48488 | 3995 ft | 240 kts | 227° |
| 2026-04-30 19:49 | 53.48885 | 9.44205 | 3993 ft | 240 kts | 227° |
| 2026-04-30 19:49 | 53.47814 | 9.42045 | 3989 ft | 240 kts | 227° |
| 2026-04-30 19:50 | 53.46745 | 9.39881 | 3974 ft | 240 kts | 228° |
| 2026-04-30 19:50 | 53.45687 | 9.37744 | 3989 ft | 241 kts | 228° |
| 2026-04-30 19:50 | 53.44614 | 9.35580 | 3988 ft | 240 kts | 227° |
| 2026-04-30 19:50 | 53.43394 | 9.33709 | 3979 ft | 236 kts | 203° |
| 2026-04-30 19:51 | 53.41861 | 9.33117 | 3980 ft | 228 kts | 171° |
| 2026-04-30 19:51 | 53.40411 | 9.33984 | 3980 ft | 220 kts | 138° |
| 2026-04-30 19:51 | 53.39527 | 9.35995 | 3981 ft | 215 kts | 105° |
| 2026-04-30 19:51 | 53.39378 | 9.38437 | 3987 ft | 215 kts | 88° |
| 2026-04-30 19:52 | 53.39480 | 9.40939 | 3989 ft | 215 kts | 84° |
| 2026-04-30 19:52 | 53.39627 | 9.43437 | 3986 ft | 215 kts | 84° |
| 2026-04-30 19:52 | 53.39781 | 9.45936 | 3979 ft | 215 kts | 84° |
| 2026-04-30 19:52 | 53.39939 | 9.48396 | 3980 ft | 215 kts | 79° |
| 2026-04-30 19:53 | 53.40329 | 9.50821 | 3964 ft | 216 kts | 72° |
| 2026-04-30 19:53 | 53.40833 | 9.53198 | 3979 ft | 216 kts | 68° |
| 2026-04-30 19:53 | 53.41527 | 9.55411 | 3995 ft | 217 kts | 58° |
| 2026-04-30 19:53 | 53.42444 | 9.57437 | 3979 ft | 218 kts | 50° |
| 2026-04-30 19:54 | 53.43454 | 9.59300 | 3977 ft | 218 kts | 49° |
| 2026-04-30 19:54 | 53.44442 | 9.61120 | 3969 ft | 203 kts | 50° |
| 2026-04-30 19:54 | 53.45360 | 9.62874 | 3885 ft | 198 kts | 51° |
| 2026-04-30 19:54 | 53.46257 | 9.64641 | 3753 ft | 198 kts | 51° |
| 2026-04-30 19:55 | 53.47131 | 9.66402 | 3635 ft | 198 kts | 52° |
| 2026-04-30 19:55 | 53.48007 | 9.68190 | 3509 ft | 197 kts | 52° |
| 2026-04-30 19:55 | 53.48867 | 9.69954 | 3373 ft | 198 kts | 53° |
| 2026-04-30 19:55 | 53.49739 | 9.71748 | 3246 ft | 196 kts | 52° |
| 2026-04-30 19:56 | 53.50593 | 9.73502 | 3054 ft | 191 kts | 52° |
| 2026-04-30 19:56 | 53.51415 | 9.75187 | 2984 ft | 180 kts | 52° |
| 2026-04-30 19:56 | 53.52204 | 9.76802 | 2953 ft | 178 kts | 52° |
| 2026-04-30 19:56 | 53.52983 | 9.78396 | 2762 ft | 177 kts | 52° |
| 2026-04-30 19:57 | 53.53764 | 9.79990 | 2527 ft | 176 kts | 52° |
| 2026-04-30 19:57 | 53.54542 | 9.81576 | 2294 ft | 175 kts | 52° |
| 2026-04-30 19:57 | 53.55314 | 9.83147 | 2064 ft | 176 kts | 52° |
| 2026-04-30 19:57 | 53.56101 | 9.84748 | 1833 ft | 175 kts | 52° |
| 2026-04-30 19:58 | 53.56851 | 9.86270 | 1639 ft | 163 kts | 52° |
| 2026-04-30 19:58 | 53.57567 | 9.87723 | 1443 ft | 158 kts | 52° |
| 2026-04-30 19:58 | 53.58239 | 9.89088 | 1228 ft | 147 kts | 51° |
| 2026-04-30 19:58 | 53.58887 | 9.90374 | 976 ft | 139 kts | 52° |
| 2026-04-30 19:59 | 53.59467 | 9.91569 | 764 ft | 128 kts | 53° |
| 2026-04-30 19:59 | 53.60028 | 9.92710 | 608 ft | 127 kts | 51° |
| 2026-04-30 19:59 | 53.61145 | 9.94983 | 326 ft | 126 kts | 50° |
| 2026-04-30 20:00 | 53.61707 | 9.96119 | 161 ft | 127 kts | 52° |
| 2026-04-30 20:00 | 53.62259 | 9.97254 | 62 ft | 118 kts | 51° |
| 2026-04-30 20:00 | 53.62677 | 9.98098 | 62 ft | 68 kts | 50° |
| 2026-04-30 20:00 | 53.62904 | 9.98561 | 62 ft | 38 kts | 49° |
| 2026-04-30 20:01 | 53.63089 | 9.99179 | 62 ft | 19 kts | 93° |
| 2026-04-30 20:01 | 53.63066 | 9.99261 | 62 ft | 7 kts | 156° |
| 2026-04-30 20:01 | 53.63057 | 9.99296 | 62 ft | 0 kts | 60° |
| 2026-04-30 20:02 | 53.63061 | 9.99309 | 62 ft | 0 kts | 56° |
| 2026-04-30 20:02 | 53.63062 | 9.99311 | 62 ft | 0 kts | 56° |
| 2026-04-30 20:03 | 53.63083 | 9.99366 | 62 ft | 4 kts | 57° |
| 2026-04-30 20:03 | 53.63086 | 9.99371 | 62 ft | 0 kts | 57° |
| 2026-04-30 20:05 | 53.63158 | 9.99542 | 62 ft | 13 kts | 49° |
| 2026-04-30 20:06 | 53.63206 | 9.99635 | 62 ft | 4 kts | 49° |
| 2026-04-30 20:06 | 53.63218 | 9.99658 | 62 ft | 0 kts | 49° |
| 2026-04-30 20:06 | 53.63226 | 9.99673 | 62 ft | 2 kts | 49° |
| 2026-04-30 20:06 | 53.63238 | 9.99699 | 62 ft | 0 kts | 49° |
| 2026-04-30 20:07 | 53.63244 | 9.99710 | 62 ft | 6 kts | 49° |
| 2026-04-30 20:07 | 53.63292 | 9.99797 | 62 ft | 11 kts | 44° |
| 2026-04-30 20:07 | 53.63404 | 10.00009 | 62 ft | 13 kts | 50° |
| 2026-04-30 20:08 | 53.63451 | 10.00110 | 62 ft | 8 kts | 67° |
| 2026-04-30 20:08 | 53.63420 | 10.00196 | 62 ft | 9 kts | 144° |
| 2026-04-30 20:08 | 53.63354 | 10.00229 | 62 ft | 10 kts | 178° |
| 2026-04-30 20:08 | 53.63274 | 10.00238 | 62 ft | 12 kts | 175° |
| 2026-04-30 20:09 | 53.63213 | 10.00248 | 62 ft | 5 kts | 159° |
| 2026-04-30 20:09 | 53.63204 | 10.00304 | 62 ft | 2 kts | 82° |
| 2026-04-30 20:09 | 53.63208 | 10.00362 | 62 ft | 1 kts | 85° |
| 2026-04-30 20:10 | 53.63208 | 10.00363 | 62 ft | 0 kts | 85° |